Time;durP1;ratioP1;P1;durP2;ratioP2;P2;SDS_P1;SDS_P2;PMS_P1;PMS_P2;Temp;Humidity;BMP_temperature;BMP_pressure;BME280_temperature;BME280_humidity;BME280_pressure;Samples;Min_cycle;Max_cycle;Signal;HPM_P1;HPM_P2
2022/03/07 00:01:10;;;;;;;11.68;8.73;;;;;;;8.90;34.48;100584.62;1959505;98;25403;-78
2022/03/07 00:04:52;;;;;;;13.05;9.53;;;;;;;8.89;34.50;100585.47;1957186;99;25858;-78
2022/03/07 00:08:36;;;;;;;11.70;9.93;;;;;;;8.87;34.47;100580.62;2062119;94;25865;-78
2022/03/07 00:12:16;;;;;;;13.13;9.05;;;;;;;8.88;34.48;100582.83;2069747;94;25734;-78
2022/03/07 00:16:18;;;;;;;15.90;9.55;;;;;;;8.87;34.46;100581.04;2087303;93;25750;-77
2022/03/07 00:20:12;;;;;;;11.85;9.05;;;;;;;8.86;34.46;100576.27;2047278;93;25575;-78
2022/03/07 00:23:36;;;;;;;10.78;8.73;;;;;;;8.85;34.46;100573.63;2060100;94;25691;-78
2022/03/07 00:27:09;;;;;;;12.15;8.93;;;;;;;8.83;34.46;100580.48;2084380;94;25769;-79
2022/03/07 00:30:30;;;;;;;9.83;8.43;;;;;;;8.84;34.46;100577.03;2083861;93;25721;-78
2022/03/07 00:33:57;;;;;;;14.35;8.60;;;;;;;8.83;34.46;100583.08;2083873;93;25908;-78
2022/03/07 00:37:40;;;;;;;13.32;9.75;;;;;;;8.82;34.48;100585.22;2084223;94;25691;-78
2022/03/07 00:41:15;;;;;;;11.95;8.48;;;;;;;8.81;34.47;100580.44;2080812;94;25792;-78
2022/03/07 00:45:16;;;;;;;11.33;8.28;;;;;;;8.81;34.48;100580.83;2084158;94;27008;-78
2022/03/07 00:49:02;;;;;;;11.12;8.08;;;;;;;8.80;34.50;100582.55;2024560;96;26105;-78
2022/03/07 00:52:29;;;;;;;12.13;8.58;;;;;;;8.79;34.50;100578.61;2024540;96;25756;-78
2022/03/07 00:56:51;;;;;;;10.53;8.70;;;;;;;8.79;34.51;100581.22;2055378;96;26128;-78
2022/03/07 01:00:39;;;;;;;10.78;8.50;;;;;;;8.78;34.51;100569.94;2056299;94;25965;-78
2022/03/07 01:04:20;;;;;;;8.33;7.53;;;;;;;8.77;34.50;100565.55;2056066;94;25877;-78
2022/03/07 01:07:50;;;;;;;11.33;8.10;;;;;;;8.75;34.50;100555.53;2059762;96;25768;-77
2022/03/07 01:15:10;;;;;;;9.15;7.05;;;;;;;8.74;34.50;100557.64;1862701;104;25821;-78
2022/03/07 01:18:48;;;;;;;10.88;7.75;;;;;;;8.72;34.51;100553.70;1878270;103;25831;-77
2022/03/07 01:22:23;;;;;;;10.80;7.37;;;;;;;8.72;34.50;100550.23;1862531;104;26020;-77
2022/03/07 01:26:14;;;;;;;9.63;7.60;;;;;;;8.70;34.51;100544.96;1860790;104;25770;-78
2022/03/07 01:29:42;;;;;;;8.33;7.12;;;;;;;8.70;34.52;100535.86;1918918;103;25757;-77
2022/03/07 01:33:27;;;;;;;13.48;7.97;;;;;;;8.70;34.52;100533.27;1919277;103;25905;-78
2022/03/07 01:36:50;;;;;;;9.48;7.47;;;;;;;8.70;34.54;100534.98;1919317;103;25919;-78
2022/03/07 01:40:25;;;;;;;7.25;6.40;;;;;;;8.69;34.55;100535.83;1919527;101;25798;-77
2022/03/07 01:43:47;;;;;;;9.15;6.60;;;;;;;8.68;34.55;100527.15;1919413;101;26627;-78
2022/03/07 01:47:12;;;;;;;10.48;7.95;;;;;;;8.68;34.54;100527.15;1926897;101;25884;-78
2022/03/07 01:51:17;;;;;;;;;;;;;;;;;;;;;
2022/03/07 01:54:55;;;;;;;8.18;7.30;;;;;;;8.66;34.55;100522.30;2026246;97;25927;-78
2022/03/07 01:58:31;;;;;;;9.58;6.90;;;;;;;8.67;34.56;100523.19;2026266;96;25886;-79
2022/03/07 02:02:21;;;;;;;7.92;6.45;;;;;;;8.64;34.56;100534.39;2022302;97;25709;-78
2022/03/07 02:05:52;;;;;;;6.85;6.12;;;;;;;8.64;34.56;100534.39;1921212;102;25721;-78
2022/03/07 02:09:26;;;;;;;7.12;5.90;;;;;;;8.63;34.55;100527.39;1952876;98;25829;-78
2022/03/07 02:12:58;;;;;;;8.60;6.42;;;;;;;8.63;34.55;100518.72;1951558;99;25811;-77
2022/03/07 02:16:39;;;;;;;7.67;5.85;;;;;;;8.61;34.57;100513.48;1949625;100;25842;-77
2022/03/07 02:20:36;;;;;;;;;;;;;;;;;;;;;
2022/03/07 02:23:52;;;;;;;8.38;5.47;;;;;;;8.60;34.57;100505.20;1843614;104;25822;-77
2022/03/07 02:27:31;;;;;;;;;;;;;;;;;;;;;
2022/03/07 02:30:47;;;;;;;8.63;5.80;;;;;;;8.59;34.57;100508.64;1805119;107;25888;-77
2022/03/07 02:34:13;;;;;;;8.08;5.92;;;;;;;8.57;34.58;100497.72;1805060;107;25872;-78
2022/03/07 02:37:41;;;;;;;7.67;6.12;;;;;;;8.56;34.59;100494.66;1804922;108;25791;-78
2022/03/07 02:41:02;;;;;;;6.60;5.22;;;;;;;8.56;34.61;100488.17;1838061;101;25756;-77
2022/03/07 02:44:29;;;;;;;9.13;5.15;;;;;;;8.55;34.62;100483.39;1948261;101;25879;-78
2022/03/07 02:47:53;;;;;;;9.78;5.60;;;;;;;8.55;34.62;100486.41;1948409;100;25805;-77
2022/03/07 02:51:14;;;;;;;8.33;5.83;;;;;;;8.54;34.63;100488.13;1948022;101;25863;-76
2022/03/07 02:54:38;;;;;;;8.70;5.42;;;;;;;8.54;34.65;100485.53;2014921;94;25758;-76
2022/03/07 02:58:01;;;;;;;9.00;5.80;;;;;;;8.54;34.65;100480.72;2063225;94;25794;-77
2022/03/07 03:01:30;;;;;;;6.70;5.70;;;;;;;8.53;34.67;100479.84;1962232;99;25813;-76
2022/03/07 03:04:59;;;;;;;6.83;5.47;;;;;;;8.53;34.68;100481.14;1992424;99;25307;-76
2022/03/07 03:08:26;;;;;;;;;;;;;;;8.53;34.70;100481.56;1994038;99;25464;-75
2022/03/07 03:11:47;;;;;;;5.42;4.90;;;;;;;8.50;34.70;100474.16;1992921;97;25872;-77
2022/03/07 03:15:08;;;;;;;6.23;5.40;;;;;;;8.49;34.72;100477.56;1992972;97;25820;-78
2022/03/07 03:18:29;;;;;;;5.92;4.90;;;;;;;8.49;34.74;100483.19;1992936;99;25772;-76
2022/03/07 03:22:02;;;;;;;7.60;4.97;;;;;;;8.48;34.75;100478.41;1992015;97;26139;-78
2022/03/07 03:25:41;;;;;;;4.00;3.52;;;;;;;8.48;34.76;100486.62;1992335;97;25872;-78
2022/03/07 03:29:31;;;;;;;5.35;4.85;;;;;;;8.48;34.77;100482.72;1991561;97;25683;-78
2022/03/07 03:37:24;;;;;;;5.33;4.33;;;;;;;8.46;34.82;100493.47;1953270;101;25806;-78
2022/03/07 03:40:54;;;;;;;5.12;4.62;;;;;;;8.45;34.84;100486.52;1987204;95;25756;-77
2022/03/07 03:44:17;;;;;;;6.78;4.22;;;;;;;8.44;34.87;100479.56;1953808;99;25866;-78
2022/03/07 03:47:50;;;;;;;4.85;3.87;;;;;;;8.43;34.88;100478.66;1982385;99;25918;-77
2022/03/07 03:51:19;;;;;;;6.17;4.20;;;;;;;8.42;34.90;100473.42;1953702;100;25999;-77
2022/03/07 03:54:50;;;;;;;4.97;4.22;;;;;;;8.41;34.93;100475.56;1986971;99;25977;-77
2022/03/07 03:58:24;;;;;;;6.60;4.35;;;;;;;8.41;34.94;100472.96;1972373;99;25919;-76
2022/03/07 04:02:13;;;;;;;4.72;4.30;;;;;;;8.39;34.96;100475.48;2004013;96;25724;-78
2022/03/07 04:05:41;;;;;;;5.83;3.70;;;;;;;8.38;34.99;100473.73;2012907;97;25744;-77
2022/03/07 04:09:17;;;;;;;4.17;3.57;;;;;;;8.37;35.00;100466.75;2013784;97;25816;-78
2022/03/07 04:13:01;;;;;;;5.22;3.60;;;;;;;8.36;35.03;100460.19;2014458;97;26124;-77
2022/03/07 04:16:37;;;;;;;5.85;4.08;;;;;;;8.34;35.06;100463.16;1962259;100;25724;-82
2022/03/07 04:20:29;;;;;;;4.05;3.33;;;;;;;8.32;35.09;100470.02;1963677;100;25771;-77
2022/03/07 04:23:56;;;;;;;4.45;3.70;;;;;;;8.29;35.12;100470.36;1920108;103;26164;-78
2022/03/07 04:27:30;;;;;;;4.30;3.62;;;;;;;8.27;35.17;100462.95;1960343;100;25362;-79
2022/03/07 04:30:54;;;;;;;5.17;4.05;;;;;;;8.26;35.19;100474.56;1962811;99;25744;-77
2022/03/07 04:34:21;;;;;;;6.95;3.80;;;;;;;8.24;35.23;100469.34;1988694;99;25671;-77
2022/03/07 04:37:54;;;;;;;4.97;3.80;;;;;;;8.23;35.25;100470.56;1981746;98;25489;-77
2022/03/07 04:41:18;;;;;;;4.15;3.72;;;;;;;8.20;35.30;100463.97;1987793;99;25704;-78
2022/03/07 04:44:47;;;;;;;5.22;4.03;;;;;;;8.17;35.34;100466.06;1988244;97;25660;-77
2022/03/07 04:48:08;;;;;;;4.83;4.05;;;;;;;8.16;35.36;100464.70;1988421;98;25676;-77
2022/03/07 04:51:29;;;;;;;6.27;3.77;;;;;;;8.13;35.39;100462.87;1988985;99;34646;-78
2022/03/07 04:54:56;;;;;;;5.40;3.37;;;;;;;8.11;35.42;100467.14;1988672;98;25700;-78
2022/03/07 04:58:40;;;;;;;4.33;3.92;;;;;;;8.10;35.46;100469.67;1988600;98;25752;-78
2022/03/07 05:02:01;;;;;;;4.80;3.83;;;;;;;8.05;35.51;100461.31;1987878;98;25923;-77
2022/03/07 05:05:22;;;;;;;4.77;4.23;;;;;;;8.03;35.54;100459.48;2005746;96;25859;-78
2022/03/07 05:09:00;;;;;;;4.22;3.60;;;;;;;8.01;35.58;100461.16;2044047;96;25651;-78
2022/03/07 05:12:20;;;;;;;5.78;3.90;;;;;;;7.98;35.63;100463.65;2043979;96;25808;-78
2022/03/07 05:15:50;;;;;;;3.77;3.40;;;;;;;7.96;35.67;100457.09;2044689;96;25809;-78
2022/03/07 05:19:14;;;;;;;4.30;3.42;;;;;;;7.95;35.69;100444.95;2043536;95;25855;-78
2022/03/07 05:23:02;;;;;;;5.33;3.35;;;;;;;7.95;35.74;100449.26;2048620;93;25887;-78
2022/03/07 05:26:23;;;;;;;7.08;4.20;;;;;;;7.95;35.78;100449.26;2120162;91;25747;-78
2022/03/07 05:29:46;;;;;;;5.73;3.97;;;;;;;7.96;35.79;100445.83;2118318;93;25707;-77
2022/03/07 05:33:22;;;;;;;5.05;3.95;;;;;;;7.96;35.82;100438.03;2118006;93;25861;-78
2022/03/07 05:36:48;;;;;;;6.33;3.53;;;;;;;7.98;35.83;100444.18;2118704;92;25813;-78
2022/03/07 05:40:11;;;;;;;5.10;3.75;;;;;;;8.00;35.84;100437.34;2118167;93;25628;-78
2022/03/07 05:43:49;;;;;;;4.50;3.87;;;;;;;8.02;35.86;100440.44;2082679;94;25634;-78
2022/03/07 05:47:30;;;;;;;5.03;4.53;;;;;;;8.06;35.86;100444.02;2074035;94;25769;-78
2022/03/07 05:51:00;;;;;;;7.67;4.25;;;;;;;8.07;35.86;100445.80;2082246;95;25484;-78
2022/03/07 05:54:27;;;;;;;7.00;4.45;;;;;;;8.11;35.89;100445.49;2082707;95;25728;-78
2022/03/07 05:57:48;;;;;;;7.72;4.30;;;;;;;8.13;35.90;100445.11;2082458;94;25298;-78
2022/03/07 06:01:24;;;;;;;9.37;3.73;;;;;;;8.14;35.97;100442.59;2082167;95;25662;-78
2022/03/07 06:05:00;;;;;;;4.50;3.85;;;;;;;8.18;35.94;100446.17;2081301;94;25663;-79
2022/03/07 06:08:21;;;;;;;4.45;3.77;;;;;;;8.21;35.96;100450.17;2117508;93;25724;-78
2022/03/07 06:11:45;;;;;;;8.37;4.67;;;;;;;8.24;36.03;100444.66;2080041;94;25834;-79
2022/03/07 06:15:07;;;;;;;4.58;3.70;;;;;;;8.26;36.01;100445.58;2116557;93;25772;-78
2022/03/07 06:22:12;;;;;;;8.80;4.40;;;;;;;8.31;36.05;100445.75;2014601;97;25873;-78
2022/03/07 06:25:42;;;;;;;4.57;4.10;;;;;;;8.35;36.15;100454.53;2015810;98;34873;-75
2022/03/07 06:32:51;;;;;;;7.45;4.75;;;;;;;8.41;36.13;100450.45;2006910;98;25751;-79
2022/03/07 06:36:11;;;;;;;6.90;5.47;;;;;;;8.45;36.26;100441.05;2007695;98;25859;-78
2022/03/07 06:39:38;;;;;;;8.60;4.53;;;;;;;8.50;36.41;100448.56;2008026;98;35311;-78
2022/03/07 06:43:02;;;;;;;6.78;5.60;;;;;;;8.57;36.51;100457.02;2007982;98;25791;-78
2022/03/07 06:46:23;;;;;;;5.83;4.97;;;;;;;8.75;36.53;100456.76;1973637;96;26093;-78
2022/03/07 06:49:56;;;;;;;5.83;5.20;;;;;;;9.03;36.44;100453.30;1974250;100;34802;-78
2022/03/07 06:53:18;;;;;;;10.82;5.45;;;;;;;9.31;36.23;100455.01;1973384;100;25878;-78
2022/03/07 07:00:30;;;;;;;8.35;5.47;;;;;;;9.66;36.03;100457.34;1906378;103;26159;-79
2022/03/07 07:04:01;;;;;;;7.42;4.67;;;;;;;9.72;36.02;100461.86;1864069;106;26308;-79
2022/03/07 07:07:39;;;;;;;6.50;5.03;;;;;;;9.74;36.27;100467.97;1863474;106;25964;-78
2022/03/07 07:11:10;;;;;;;5.58;4.65;;;;;;;9.80;36.16;100471.17;1843534;106;26148;-77
2022/03/07 07:14:36;;;;;;;5.85;4.60;;;;;;;9.94;35.98;100475.04;1734554;110;25947;-78
2022/03/07 07:18:16;;;;;;;7.53;5.47;;;;;;;10.14;35.89;100467.34;1747890;111;25946;-77
2022/03/07 07:21:31;;;;;;;6.67;4.70;;;;;;;10.44;35.72;100469.45;1803897;108;26277;-77
2022/03/07 07:29:11;;;;;;;8.03;4.65;;;;;;;10.67;35.55;100465.70;1806077;108;25602;-80
2022/03/07 07:32:44;;;;;;;;;;;;;;;;;;;;;
2022/03/07 07:36:16;;;;;;;9.43;5.53;;;;;;;11.02;35.39;100474.77;1759153;110;26433;-81
2022/03/07 07:39:53;;;;;;;7.63;4.30;;;;;;;11.26;35.27;100474.02;1781555;109;29116;-80
2022/03/07 07:43:49;;;;;;;;;;;;;;;;;;;;;
2022/03/07 07:47:22;;;;;;;6.75;5.45;;;;;;;11.31;35.12;100475.44;1780411;109;26479;-80
2022/03/07 07:50:59;;;;;;;6.67;4.75;;;;;;;11.23;35.12;100473.94;1756850;110;26402;-80
2022/03/07 07:55:29;;;;;;;;;;;;;;;;;;;;;
2022/03/07 07:59:32;;;;;;;5.30;4.15;;;;;;;16.91;32.02;100469.33;1744089;111;25965;-80
2022/03/07 08:06:43;;;;;;;6.33;4.87;;;;;;;22.08;26.80;100478.97;1711532;113;25910;-80
2022/03/07 08:10:34;;;;;;;4.65;4.25;;;;;;;23.59;24.85;100480.97;1729656;112;26182;-79
2022/03/07 08:17:58;;;;;;;5.03;4.12;;;;;;;26.00;22.46;100484.56;1749817;112;27172;-80
2022/03/07 08:21:21;;;;;;;4.72;4.25;;;;;;;26.66;21.65;100486.42;1752682;111;26032;-80
2022/03/07 08:25:03;;;;;;;3.92;3.62;;;;;;;27.41;21.07;100483.25;1766873;111;25942;-80
2022/03/07 08:28:33;;;;;;;5.83;3.85;;;;;;;26.63;20.87;100490.12;1766595;111;25886;-78
2022/03/07 08:32:31;;;;;;;4.87;3.95;;;;;;;25.19;21.29;100486.19;1767908;111;26451;-79
2022/03/07 08:35:47;;;;;;;3.77;3.20;;;;;;;24.09;22.00;100486.60;1785616;109;25955;-77
2022/03/07 08:39:38;;;;;;;4.17;2.95;;;;;;;23.00;22.68;100482.13;1783400;106;25921;-75
2022/03/07 08:43:01;;;;;;;3.65;3.33;;;;;;;21.96;23.32;100477.91;1929914;95;25865;-76
2022/03/07 08:46:24;;;;;;;3.60;3.30;;;;;;;21.02;24.12;100471.75;2011576;97;25822;-76
2022/03/07 08:49:53;;;;;;;3.47;3.10;;;;;;;20.59;24.80;100472.95;2076091;93;25716;-76
2022/03/07 08:53:16;;;;;;;4.28;3.05;;;;;;;21.32;25.04;100469.44;2117644;92;25749;-77
2022/03/07 08:56:37;;;;;;;5.22;3.08;;;;;;;21.70;24.92;100471.39;2117414;93;25709;-76
2022/03/07 08:59:58;;;;;;;4.17;3.35;;;;;;;21.64;24.96;100468.85;2117476;92;25809;-75
2022/03/07 09:03:37;;;;;;;3.33;2.83;;;;;;;21.52;25.04;100458.48;2082020;94;25755;-76
2022/03/07 09:07:03;;;;;;;3.37;2.77;;;;;;;21.17;25.22;100453.38;2081568;94;25818;-77
2022/03/07 09:10:32;;;;;;;3.08;2.40;;;;;;;20.54;25.61;100454.92;2081867;94;26173;-77
2022/03/07 09:13:53;;;;;;;4.10;2.35;;;;;;;19.88;26.11;100451.45;2080314;94;25785;-76
2022/03/07 09:17:19;;;;;;;3.17;2.60;;;;;;;19.32;26.63;100449.02;2079181;95;26419;-75
2022/03/07 09:20:56;;;;;;;3.42;2.75;;;;;;;18.84;27.22;100450.83;2079656;95;25767;-76
2022/03/07 09:25:01;;;;;;;4.12;2.60;;;;;;;18.33;27.72;100446.38;2082799;94;25517;-76
2022/03/07 09:28:23;;;;;;;5.00;2.70;;;;;;;17.91;28.25;100444.42;2086248;93;25825;-75
2022/03/07 09:31:45;;;;;;;3.45;2.52;;;;;;;17.50;28.84;100443.71;2086906;94;25555;-75
2022/03/07 09:35:27;;;;;;;3.50;2.22;;;;;;;17.16;29.22;100434.59;2086714;93;31702;-75
2022/03/07 09:39:05;;;;;;;2.35;1.98;;;;;;;16.91;29.69;100439.92;2093337;93;25708;-76
2022/03/07 09:42:41;;;;;;;3.50;2.05;;;;;;;16.71;29.97;100444.29;2092713;93;25863;-75
2022/03/07 09:46:18;;;;;;;3.40;2.70;;;;;;;16.49;30.51;100440.33;2119404;92;25772;-77
2022/03/07 09:49:57;;;;;;;3.10;2.33;;;;;;;16.32;30.71;100432.86;2118467;92;25792;-76
2022/03/07 09:53:19;;;;;;;3.35;2.12;;;;;;;16.13;30.94;100433.30;2118568;93;25915;-77
2022/03/07 09:56:46;;;;;;;3.33;2.47;;;;;;;15.98;31.13;100443.33;2118727;92;25851;-77
2022/03/07 10:00:24;;;;;;;3.42;2.15;;;;;;;15.83;31.38;100431.47;2118191;93;25899;-80
2022/03/07 10:04:17;;;;;;;3.25;2.35;;;;;;;15.73;31.63;100440.20;2108291;93;25753;-80
2022/03/07 10:08:24;;;;;;;;;;;;;;;;;;;;;
2022/03/07 10:12:15;;;;;;;3.92;2.40;;;;;;;15.63;32.07;100437.06;2024344;96;25926;-81
2022/03/07 10:16:04;;;;;;;2.98;1.85;;;;;;;15.77;32.23;100438.89;2028574;97;25811;-78
2022/03/07 10:20:23;;;;;;;;;;;;;;;;;;;;;
2022/03/07 10:24:03;;;;;;;3.10;1.98;;;;;;;16.37;32.24;100438.11;1961438;99;25992;-78
2022/03/07 10:27:54;;;;;;;3.05;2.00;;;;;;;17.50;31.71;100434.04;1960935;99;25936;-77
2022/03/07 10:31:44;;;;;;;;;;;;;;;;;;;;;
2022/03/07 10:35:28;;;;;;;2.50;2.25;;;;;;;19.47;30.38;100434.31;1876358;103;25797;-78
2022/03/07 10:38:57;;;;;;;3.53;2.00;;;;;;;19.67;29.99;100434.52;1804889;108;25901;-78
2022/03/07 10:44:52;;;;;;;1.83;1.50;;;;;;;19.93;29.71;100419.63;2430258;77;25777;-77
2022/03/07 10:48:21;;;;;;;3.17;1.80;;;;;;;20.50;29.67;100420.96;2282029;83;25865;-78
2022/03/07 10:52:32;;;;;;;3.85;2.47;;;;;;;22.10;28.99;100428.02;2281847;82;25349;-79
2022/03/07 10:56:02;;;;;;;5.10;4.37;;;;;;;22.88;28.40;100438.08;2287838;84;25710;-81
2022/03/07 10:59:45;;;;;;;5.12;4.70;;;;;;;23.49;26.14;100430.23;2286107;84;25849;-79
2022/03/07 11:03:20;;;;;;;6.17;4.72;;;;;;;23.81;25.11;100428.00;2314854;83;25908;-81
2022/03/07 11:06:40;;;;;;;6.50;4.20;;;;;;;23.91;24.01;100428.13;2205147;89;26064;-80
2022/03/07 11:10:36;;;;;;;7.90;4.83;;;;;;;23.69;23.47;100427.02;2205390;89;25780;-81
2022/03/07 11:21:56;;;;;;;6.42;5.83;;;;;;;22.82;22.90;100409.89;1935809;100;25967;-80
2022/03/07 11:25:52;;;;;;;6.15;5.55;;;;;;;23.40;22.45;100405.24;1918485;101;25938;-78
2022/03/07 11:29:50;;;;;;;6.42;5.58;;;;;;;23.73;21.98;100395.42;1921581;101;26732;-80
2022/03/07 11:33:49;;;;;;;6.50;5.90;;;;;;;24.09;21.79;100401.84;1949937;100;25936;-80
2022/03/07 11:37:27;;;;;;;6.27;5.67;;;;;;;24.47;21.51;100399.31;1893666;101;25530;-80
2022/03/07 11:41:31;;;;;;;6.35;5.75;;;;;;;24.83;21.10;100396.28;1890308;103;25897;-78
2022/03/07 11:45:18;;;;;;;6.35;5.67;;;;;;;24.79;20.75;100392.86;1902768;101;25776;-78
2022/03/07 11:49:11;;;;;;;8.33;5.33;;;;;;;23.98;20.72;100393.73;1908778;102;25843;-79
2022/03/07 11:53:07;;;;;;;8.15;5.12;;;;;;;22.87;20.90;100389.36;1855275;103;26122;-78
2022/03/07 11:57:18;;;;;;;9.65;4.05;;;;;;;22.31;21.44;100384.20;1821669;106;25350;-78
2022/03/07 12:01:16;;;;;;;7.80;4.12;;;;;;;22.46;21.42;100386.92;1827671;106;25959;-80
2022/03/07 12:04:48;;;;;;;4.93;4.27;;;;;;;22.38;21.19;100373.38;1793133;108;25858;-79
2022/03/07 12:12:31;;;;;;;10.30;5.25;;;;;;;22.68;21.10;100370.85;1804313;107;26108;-79
2022/03/07 12:16:06;;;;;;;8.93;4.28;;;;;;;22.90;20.94;100372.45;1831690;105;25802;-79
2022/03/07 12:20:10;;;;;;;4.85;4.03;;;;;;;22.50;20.89;100376.63;1833423;104;25917;-80
2022/03/07 12:28:19;;;;;;;8.68;4.97;;;;;;;22.04;21.25;100359.13;1785410;106;25825;-80
2022/03/07 12:32:34;;;;;;;6.05;3.92;;;;;;;22.10;21.42;100362.51;1814377;103;25882;-81
2022/03/07 12:36:15;;;;;;;5.85;4.58;;;;;;;21.54;21.36;100362.05;1892253;103;25868;-81
2022/03/07 12:40:23;;;;;;;5.35;4.65;;;;;;;20.85;21.76;100360.75;1889568;103;25871;-81
2022/03/07 12:44:00;;;;;;;;;;;;;;;;;;;;;
2022/03/07 12:48:03;;;;;;;6.00;4.87;;;;;;;20.29;22.43;100356.87;1922994;101;25882;-81
2022/03/07 12:51:36;;;;;;;7.42;6.28;;;;;;;19.68;22.56;100357.82;1950935;99;25861;-83
2022/03/07 12:59:09;;;;;;;5.50;5.00;;;;;;;19.45;23.42;100354.12;2018815;94;25912;-81
2022/03/07 13:02:58;;;;;;;8.25;5.40;;;;;;;19.95;23.30;100353.89;2029273;95;25653;-81
2022/03/07 13:06:26;;;;;;;6.45;5.62;;;;;;;19.54;23.42;100350.05;2023125;97;25763;-81
2022/03/07 13:09:55;;;;;;;8.70;5.58;;;;;;;19.43;23.80;100344.00;2019039;97;25872;-80
2022/03/07 13:17:34;;;;;;;8.98;5.95;;;;;;;20.46;23.44;100345.13;2002250;96;26013;-82
2022/03/07 13:25:06;;;;;;;7.42;6.72;;;;;;;19.69;23.34;100351.63;1961025;99;26265;-81
2022/03/07 13:29:15;;;;;;;8.85;7.45;;;;;;;18.84;23.81;100345.17;1971759;98;25859;-81
2022/03/07 13:32:44;;;;;;;10.38;7.33;;;;;;;18.06;24.33;100350.27;1892193;102;25882;-81
2022/03/07 13:36:22;;;;;;;8.88;7.85;;;;;;;17.41;24.96;100351.05;1904071;101;25968;-81
2022/03/07 13:40:09;;;;;;;12.88;8.23;;;;;;;16.90;25.51;100349.05;1890542;103;25953;-82
2022/03/07 13:43:40;;;;;;;10.15;8.63;;;;;;;16.40;26.13;100356.55;1850501;105;25971;-81
2022/03/07 13:47:12;;;;;;;13.55;7.78;;;;;;;15.94;26.65;100349.98;1808710;106;26048;-80
2022/03/07 13:50:47;;;;;;;11.88;7.10;;;;;;;15.66;27.09;100352.57;1773213;109;25955;-81
2022/03/07 13:54:11;;;;;;;13.08;7.40;;;;;;;15.34;27.52;100355.05;1774075;110;26115;-81
2022/03/07 13:58:05;;;;;;;9.55;8.50;;;;;;;15.04;27.98;100360.60;1834088;104;25873;-79
2022/03/07 14:01:55;;;;;;;11.50;8.18;;;;;;;14.73;28.49;100354.75;1897476;101;25806;-80
2022/03/07 14:05:44;;;;;;;8.65;7.20;;;;;;;14.43;29.01;100352.32;1928474;100;25990;-76
2022/03/07 14:09:16;;;;;;;10.65;7.50;;;;;;;14.36;29.71;100350.09;1974368;97;25807;-74
2022/03/07 14:13:00;;;;;;;9.78;7.45;;;;;;;14.51;29.87;100343.22;2035956;93;25769;-75
2022/03/07 14:16:39;;;;;;;9.68;6.72;;;;;;;14.59;30.02;100346.36;2063681;93;26559;-75
2022/03/07 14:20:19;;;;;;;13.18;6.92;;;;;;;14.62;30.16;100345.50;2113926;92;25946;-75
2022/03/07 14:23:40;;;;;;;8.48;6.87;;;;;;;14.60;30.32;100346.79;2085916;92;25942;-74
2022/03/07 14:27:12;;;;;;;7.50;5.58;;;;;;;14.57;30.51;100344.58;2120005;84;26597;-75
2022/03/07 14:30:33;;;;;;;11.70;6.17;;;;;;;14.48;30.50;100336.20;2279576;86;25663;-75
2022/03/07 14:33:57;;;;;;;6.30;5.47;;;;;;;14.39;30.24;100340.94;2273886;85;30931;-76
2022/03/07 14:37:18;;;;;;;9.53;5.87;;;;;;;14.36;30.52;100346.59;2270085;87;25719;-75
2022/03/07 14:40:51;;;;;;;7.33;5.10;;;;;;;14.73;30.49;100333.31;2273495;85;30888;-74
2022/03/07 14:44:33;;;;;;;5.28;4.72;;;;;;;14.60;30.23;100330.17;2270591;85;26118;-74
2022/03/07 14:48:04;;;;;;;7.83;4.58;;;;;;;14.48;30.23;100327.42;2282275;85;25687;-74
2022/03/07 14:51:35;;;;;;;7.45;4.22;;;;;;;14.32;30.24;100346.13;2274592;86;25717;-74
2022/03/07 14:55:14;;;;;;;8.25;4.42;;;;;;;14.20;30.28;100348.20;2269171;86;25720;-73
2022/03/07 14:58:35;;;;;;;6.15;3.92;;;;;;;14.00;30.29;100328.80;2280703;83;25741;-72
2022/03/07 15:01:56;;;;;;;5.62;4.17;;;;;;;14.03;30.20;100352.42;2284466;86;25255;-74
2022/03/07 15:05:22;;;;;;;4.60;3.77;;;;;;;13.94;30.42;100351.92;2284081;85;31310;-73
2022/03/07 15:08:43;;;;;;;5.47;4.20;;;;;;;13.87;30.43;100354.02;2284397;86;25927;-73
2022/03/07 15:12:05;;;;;;;4.95;3.30;;;;;;;13.88;30.51;100351.42;2284150;86;31014;-73
2022/03/07 15:15:31;;;;;;;6.03;3.22;;;;;;;13.87;30.48;100349.68;2283743;84;25665;-74
2022/03/07 15:18:56;;;;;;;5.53;3.58;;;;;;;13.81;30.56;100344.38;2281944;86;26371;-75
2022/03/07 15:22:20;;;;;;;4.87;3.40;;;;;;;13.72;30.51;100353.44;2302046;85;30943;-74
2022/03/07 15:25:56;;;;;;;7.42;3.30;;;;;;;13.64;30.66;100350.75;2284350;85;25845;-74
2022/03/07 15:29:38;;;;;;;3.35;3.02;;;;;;;13.55;30.70;100348.02;2282532;85;25743;-74
2022/03/07 15:32:58;;;;;;;3.85;2.85;;;;;;;13.46;30.74;100337.44;2284093;86;25784;-72
2022/03/07 15:36:30;;;;;;;4.47;3.92;;;;;;;13.37;30.85;100340.84;2284182;85;30982;-73
2022/03/07 15:40:13;;;;;;;3.65;2.40;;;;;;;13.29;30.95;100336.37;2281217;86;25770;-74
2022/03/07 15:44:15;;;;;;;4.05;2.30;;;;;;;13.17;31.07;100334.03;2277423;86;25730;-76
2022/03/07 15:47:40;;;;;;;3.27;2.58;;;;;;;13.07;31.20;100338.70;2285872;84;25803;-76
2022/03/07 15:51:06;;;;;;;5.45;3.22;;;;;;;12.96;31.28;100369.09;2264384;86;25762;-75
2022/03/07 15:54:32;;;;;;;8.95;3.05;;;;;;;12.89;31.50;100381.22;2176765;87;25829;-76
2022/03/07 15:58:01;;;;;;;4.25;2.25;;;;;;;12.78;32.13;100392.37;2165600;89;25809;-76
2022/03/07 16:01:38;;;;;;;2.62;1.75;;;;;;;12.64;32.81;100385.63;2195473;87;25927;-75
2022/03/07 16:05:13;;;;;;;4.75;2.60;;;;;;;12.52;33.44;100378.05;2185655;86;25817;-75
2022/03/07 16:09:09;;;;;;;3.20;2.30;;;;;;;12.40;34.00;100366.52;2140945;89;25880;-76
2022/03/07 16:12:41;;;;;;;;;;;;;;;;;;;;;
2022/03/07 16:16:09;;;;;;;2.92;2.47;;;;;;;12.13;34.98;100366.51;2067066;94;26004;-76
2022/03/07 16:19:40;;;;;;;4.03;3.08;;;;;;;12.01;35.41;100368.89;2076215;93;27052;-75
2022/03/07 16:23:12;;;;;;;3.83;2.83;;;;;;;11.85;35.80;100368.20;2061773;92;26717;-77
2022/03/07 16:26:43;;;;;;;6.58;3.55;;;;;;;11.71;36.31;100374.02;2061024;94;26007;-77
2022/03/07 16:30:28;;;;;;;4.97;2.77;;;;;;;11.60;36.63;100371.60;2066995;91;25824;-76
2022/03/07 16:33:51;;;;;;;4.58;2.92;;;;;;;11.49;37.10;100380.97;2149330;90;26030;-75
2022/03/07 16:37:14;;;;;;;5.33;4.05;;;;;;;11.39;37.36;100378.59;2145786;90;25741;-74
2022/03/07 16:41:06;;;;;;;4.97;3.58;;;;;;;11.29;37.71;100379.25;2146625;90;25759;-76
2022/03/07 16:44:36;;;;;;;6.33;4.00;;;;;;;11.21;38.00;100390.84;2147887;90;25773;-76
2022/03/07 16:47:56;;;;;;;5.12;4.05;;;;;;;11.14;38.46;100391.56;2164742;89;25795;-77
2022/03/07 16:51:29;;;;;;;6.42;4.08;;;;;;;11.07;38.72;100389.67;2165210;89;25704;-76
2022/03/07 16:54:54;;;;;;;4.53;3.67;;;;;;;11.02;38.91;100395.20;2076757;93;25842;-76
2022/03/07 16:58:30;;;;;;;3.98;3.25;;;;;;;10.96;39.12;100397.67;2073587;93;25935;-75
2022/03/07 17:01:55;;;;;;;5.80;4.10;;;;;;;10.91;39.23;100411.92;2080871;92;25714;-75
2022/03/07 17:05:36;;;;;;;4.57;3.87;;;;;;;11.03;39.29;100413.91;2060775;88;26388;-75
2022/03/07 17:08:56;;;;;;;7.08;4.37;;;;;;;11.15;39.11;100417.23;2174586;88;25821;-76
2022/03/07 17:12:36;;;;;;;6.93;3.57;;;;;;;11.23;38.96;100413.92;2179909;88;29532;-76
2022/03/07 17:16:22;;;;;;;5.03;3.30;;;;;;;11.30;38.85;100422.33;2166775;88;25715;-76
2022/03/07 17:19:57;;;;;;;4.28;3.08;;;;;;;11.35;38.68;100425.06;2076673;93;26232;-75
2022/03/07 17:23:37;;;;;;;4.15;3.35;;;;;;;11.38;38.57;100422.52;2060626;93;26090;-76
2022/03/07 17:27:21;;;;;;;;;;;;;;;;;;;;;
2022/03/07 17:30:41;;;;;;;6.28;3.35;;;;;;;11.43;38.35;100424.78;2067251;92;25848;-75
2022/03/07 17:34:06;;;;;;;5.03;3.22;;;;;;;11.46;38.24;100425.28;2106756;92;25832;-76
2022/03/07 17:37:45;;;;;;;3.55;2.95;;;;;;;11.47;38.18;100427.91;2139330;90;25304;-75
2022/03/07 17:41:22;;;;;;;3.47;3.17;;;;;;;11.47;38.12;100430.52;2118432;92;25870;-75
2022/03/07 17:44:59;;;;;;;7.95;4.25;;;;;;;11.48;38.05;100435.34;2102866;89;26528;-74
2022/03/07 17:48:23;;;;;;;4.58;3.35;;;;;;;11.48;37.99;100432.73;2144732;89;25773;-75
2022/03/07 17:52:15;;;;;;;4.12;3.22;;;;;;;11.47;37.95;100429.64;2148984;90;26175;-74
2022/03/07 17:55:53;;;;;;;;;;;;;;;;;;;;;
2022/03/07 17:59:14;;;;;;;5.40;2.95;;;;;;;11.49;37.86;100438.40;2279512;83;25672;-76
2022/03/07 18:02:51;;;;;;;4.12;3.22;;;;;;;11.49;37.82;100437.09;2268026;83;25802;-75
2022/03/07 18:06:13;;;;;;;2.87;2.25;;;;;;;11.49;37.81;100437.09;2291544;82;25742;-76